createdAt,value
2022-12-14T00:01:58.484Z,-2.30
2022-12-14T00:04:26.553Z,-2.20
2022-12-14T00:06:54.658Z,-2.10
2022-12-14T00:09:22.825Z,-2.10
2022-12-14T00:11:50.890Z,-2.10
2022-12-14T00:14:19.008Z,-2.20
2022-12-14T00:16:47.092Z,-2.20
2022-12-14T00:19:16.694Z,-2.30
2022-12-14T00:21:44.957Z,-2.30
2022-12-14T00:24:13.023Z,-2.20
2022-12-14T00:26:41.117Z,-2.20
2022-12-14T00:29:09.118Z,-2.30
2022-12-14T00:31:37.472Z,-2.20
2022-12-14T00:34:05.516Z,-2.20
2022-12-14T00:36:36.507Z,-2.20
2022-12-14T00:39:04.908Z,-2.20
2022-12-14T00:41:32.940Z,-2.20
2022-12-14T00:44:01.001Z,-2.20
2022-12-14T00:46:29.189Z,-2.30
2022-12-14T00:48:57.261Z,-2.30
2022-12-14T00:51:25.291Z,-2.40
2022-12-14T00:53:54.752Z,-2.40
2022-12-14T00:56:22.854Z,-2.40
2022-12-14T00:58:54.452Z,-2.40
2022-12-14T01:01:23.049Z,-2.30
2022-12-14T01:04:11.861Z,-2.20
2022-12-14T01:06:40.076Z,-2.20
2022-12-14T01:09:09.742Z,-2.20
2022-12-14T01:11:37.994Z,-2.10
2022-12-14T01:14:06.106Z,-2.10
2022-12-14T01:16:34.275Z,-1.90
2022-12-14T01:19:03.305Z,-1.70
2022-12-14T01:21:31.659Z,-1.80
2022-12-14T01:24:01.572Z,-1.90
2022-12-14T01:26:33.402Z,-2.00
2022-12-14T01:29:01.658Z,-2.10
2022-12-14T01:31:31.924Z,-2.10
2022-12-14T01:34:00.750Z,-2.20
2022-12-14T01:36:30.622Z,-2.20
2022-12-14T01:39:01.495Z,-2.10
2022-12-14T01:41:33.222Z,-2.10
2022-12-14T01:44:05.607Z,-2.10
2022-12-14T01:46:37.747Z,-2.00
2022-12-14T01:49:12.978Z,-2.00
2022-12-14T01:51:44.285Z,-2.00
2022-12-14T01:54:14.562Z,-2.00
2022-12-14T01:56:46.023Z,-2.10
2022-12-14T01:59:18.543Z,-2.00
2022-12-14T02:01:48.288Z,-2.10
2022-12-14T02:04:18.876Z,-2.10
2022-12-14T02:06:49.039Z,-2.10
2022-12-14T02:09:19.478Z,-2.10
2022-12-14T02:11:55.705Z,-2.00
2022-12-14T02:14:24.005Z,-2.20
2022-12-14T02:20:54.056Z,-2.20
2022-12-14T02:23:44.816Z,-2.20
2022-12-14T02:26:49.297Z,-2.10
2022-12-14T02:29:52.819Z,-2.10
2022-12-14T02:32:35.148Z,-2.20
2022-12-14T02:35:13.322Z,-2.30
2022-12-14T02:37:49.406Z,-2.30
2022-12-14T02:40:25.383Z,-2.30
2022-12-14T02:43:00.762Z,-2.30
2022-12-14T02:45:37.453Z,-2.30
2022-12-14T02:48:10.852Z,-2.40
2022-12-14T02:50:46.423Z,-2.40
2022-12-14T02:53:21.699Z,-2.40
2022-12-14T02:55:52.504Z,-2.40
2022-12-14T02:58:25.167Z,-2.40
2022-12-14T03:06:26.214Z,-2.50
2022-12-14T03:08:58.261Z,-2.50
2022-12-14T03:11:33.242Z,-2.60
2022-12-14T03:14:07.598Z,-2.60
2022-12-14T03:16:40.995Z,-2.60
2022-12-14T03:19:15.956Z,-2.60
2022-12-14T03:21:50.936Z,-2.60
2022-12-14T03:24:24.141Z,-2.60
2022-12-14T03:26:57.706Z,-2.50
2022-12-14T03:29:30.053Z,-2.60
2022-12-14T03:32:02.196Z,-2.60
2022-12-14T03:34:41.214Z,-2.60
2022-12-14T03:37:14.940Z,-2.60
2022-12-14T03:39:44.598Z,-2.60
2022-12-14T03:42:21.298Z,-2.70
2022-12-14T03:44:54.466Z,-2.70
2022-12-14T03:47:42.003Z,-2.60
2022-12-14T03:50:16.406Z,-2.50
2022-12-14T03:52:51.179Z,-2.50
2022-12-14T03:55:28.311Z,-2.50
2022-12-14T03:58:23.796Z,-2.60
2022-12-14T04:00:56.148Z,-2.70
2022-12-14T04:03:34.970Z,-2.70
2022-12-14T04:06:07.026Z,-2.70
2022-12-14T04:08:43.179Z,-2.60
2022-12-14T04:11:31.681Z,-2.60
2022-12-14T04:14:21.747Z,-2.70
2022-12-14T04:17:11.034Z,-2.60
2022-12-14T04:19:45.009Z,-2.60
2022-12-14T04:22:20.597Z,-2.50
2022-12-14T04:25:14.827Z,-2.40
2022-12-14T04:27:46.173Z,-2.50
2022-12-14T04:30:14.614Z,-2.60
2022-12-14T04:32:46.959Z,-2.60
2022-12-14T04:35:19.122Z,-2.60
2022-12-14T04:37:51.664Z,-2.50
2022-12-14T04:40:25.644Z,-2.40
2022-12-14T04:42:56.728Z,-2.50
2022-12-14T04:45:29.073Z,-2.50
2022-12-14T04:48:04.538Z,-2.50
2022-12-14T04:50:38.556Z,-2.50
2022-12-14T04:53:11.567Z,-2.60
2022-12-14T04:55:47.350Z,-2.60
2022-12-14T04:58:21.718Z,-2.60
2022-12-14T05:01:06.926Z,-2.70
2022-12-14T05:03:38.507Z,-2.70
2022-12-14T05:06:11.702Z,-2.70
2022-12-14T05:09:08.136Z,-2.70
2022-12-14T05:11:53.785Z,-2.70
2022-12-14T05:14:27.903Z,-2.60
2022-12-14T05:16:57.572Z,-2.70
2022-12-14T05:19:27.363Z,-2.70
2022-12-14T05:21:56.103Z,-2.80
2022-12-14T05:24:24.259Z,-2.80
2022-12-14T05:26:53.673Z,-2.80
2022-12-14T05:29:21.705Z,-2.80
2022-12-14T05:31:49.911Z,-2.90
2022-12-14T05:34:18.431Z,-3.00
2022-12-14T05:36:46.716Z,-3.00
2022-12-14T05:39:15.280Z,-2.90
2022-12-14T05:41:43.617Z,-2.90
2022-12-14T05:44:13.047Z,-2.90
2022-12-14T05:46:41.227Z,-2.90
2022-12-14T05:49:09.456Z,-2.90
2022-12-14T05:51:37.507Z,-3.00
2022-12-14T05:54:05.855Z,-3.00
2022-12-14T05:56:34.175Z,-3.00
2022-12-14T05:59:02.611Z,-2.90
2022-12-14T06:01:32.063Z,-3.00
2022-12-14T06:04:00.262Z,-3.00
2022-12-14T06:06:28.432Z,-3.10
2022-12-14T06:08:56.506Z,-3.10
2022-12-14T06:11:24.951Z,-3.10
2022-12-14T06:13:53.039Z,-3.10
2022-12-14T06:16:23.357Z,-3.10
2022-12-14T06:18:54.364Z,-3.10
2022-12-14T06:21:24.061Z,-3.20
2022-12-14T06:23:52.051Z,-3.20
2022-12-14T06:26:20.347Z,-3.20
2022-12-14T06:28:48.383Z,-3.20
2022-12-14T06:31:19.057Z,-3.20
2022-12-14T06:33:47.648Z,-3.20
2022-12-14T06:36:23.513Z,-3.20
2022-12-14T06:38:51.837Z,-3.30
2022-12-14T06:41:20.684Z,-3.30
2022-12-14T06:43:49.529Z,-3.30
2022-12-14T06:46:19.726Z,-3.30
2022-12-14T06:48:50.732Z,-3.30
2022-12-14T06:51:20.268Z,-3.30
2022-12-14T06:53:51.510Z,-3.30
2022-12-14T06:56:20.716Z,-3.30
2022-12-14T06:58:48.982Z,-3.40
2022-12-14T07:01:19.125Z,-3.40
2022-12-14T07:03:50.107Z,-3.40
2022-12-14T07:06:20.311Z,-3.40
2022-12-14T07:08:48.689Z,-3.40
2022-12-14T07:11:17.803Z,-3.40
2022-12-14T07:13:46.083Z,-3.40
2022-12-14T07:16:18.690Z,-3.50
2022-12-14T07:18:47.069Z,-3.50
2022-12-14T07:21:17.004Z,-3.60
2022-12-14T07:23:47.763Z,-3.60
2022-12-14T07:26:18.447Z,-3.60
2022-12-14T07:28:47.427Z,-3.60
2022-12-14T07:31:18.604Z,-3.70
2022-12-14T07:33:46.802Z,-3.70
2022-12-14T07:36:17.569Z,-3.80
2022-12-14T07:38:48.634Z,-3.80
2022-12-14T07:41:22.635Z,-3.80
2022-12-14T07:43:51.445Z,-3.90
2022-12-14T07:46:22.224Z,-3.90
2022-12-14T07:48:51.963Z,-3.80
2022-12-14T07:51:22.440Z,-3.80
2022-12-14T07:53:52.315Z,-3.80
2022-12-14T07:56:22.795Z,-3.90
2022-12-14T07:58:51.711Z,-3.90
2022-12-14T08:01:22.503Z,-3.90
2022-12-14T08:03:52.497Z,-4.00
2022-12-14T08:06:22.627Z,-4.00
2022-12-14T08:08:53.603Z,-4.00
2022-12-14T08:11:22.731Z,-4.00
2022-12-14T08:13:54.507Z,-4.00
2022-12-14T08:16:23.107Z,-4.10
2022-12-14T08:18:53.379Z,-4.10
2022-12-14T08:21:22.267Z,-4.10
2022-12-14T08:23:52.783Z,-4.10
2022-12-14T08:26:21.693Z,-4.20
2022-12-14T08:28:50.063Z,-4.20
2022-12-14T08:31:20.052Z,-4.20
2022-12-14T08:33:48.945Z,-4.20
2022-12-14T08:36:18.451Z,-4.20
2022-12-14T08:38:46.507Z,-4.20
2022-12-14T08:41:18.761Z,-4.20
2022-12-14T08:43:51.562Z,-4.20
2022-12-14T08:46:20.767Z,-4.20
2022-12-14T08:48:50.333Z,-4.20
2022-12-14T08:51:18.879Z,-4.20
2022-12-14T08:53:47.924Z,-4.20
2022-12-14T08:56:19.616Z,-4.20
2022-12-14T08:58:47.838Z,-4.30
2022-12-14T09:01:17.477Z,-4.30
2022-12-14T09:03:47.293Z,-4.20
2022-12-14T09:06:18.199Z,-4.20
2022-12-14T09:08:47.166Z,-4.20
2022-12-14T09:11:21.220Z,-4.20
2022-12-14T09:13:49.594Z,-4.20
2022-12-14T09:16:20.368Z,-4.10
2022-12-14T09:18:49.092Z,-4.10
2022-12-14T09:21:17.991Z,-4.00
2022-12-14T09:23:47.028Z,-3.90
2022-12-14T09:26:16.579Z,-3.90
2022-12-14T09:28:48.764Z,-3.80
2022-12-14T09:31:18.472Z,-3.80
2022-12-14T09:33:46.474Z,-3.70
2022-12-14T09:36:16.309Z,-3.70
2022-12-14T09:38:50.913Z,-3.50
2022-12-14T09:41:47.397Z,-3.40
2022-12-14T09:44:26.890Z,-3.40
2022-12-14T09:47:03.261Z,-3.30
2022-12-14T09:49:34.820Z,-3.30
2022-12-14T09:52:06.139Z,-3.30
2022-12-14T09:54:37.887Z,-3.30
2022-12-14T09:57:11.759Z,-3.30
2022-12-14T09:59:41.279Z,-3.30
2022-12-14T10:02:32.109Z,-3.30
2022-12-14T10:05:18.855Z,-3.20
2022-12-14T10:07:53.885Z,-3.20
2022-12-14T10:10:26.664Z,-3.20
2022-12-14T10:13:04.247Z,-3.20
2022-12-14T10:15:41.585Z,-3.20
2022-12-14T10:18:58.998Z,-3.20
2022-12-14T10:21:39.547Z,-3.10
2022-12-14T10:24:14.712Z,-3.10
2022-12-14T10:26:46.144Z,-3.10
2022-12-14T10:29:20.141Z,-3.10
2022-12-14T10:31:58.573Z,-3.00
2022-12-14T10:34:30.988Z,-3.00
2022-12-14T10:37:09.035Z,-3.00
2022-12-14T10:39:49.760Z,-2.90
2022-12-14T10:42:25.479Z,-2.90
2022-12-14T10:48:06.498Z,-2.90
2022-12-14T10:50:50.721Z,-2.90
2022-12-14T10:53:25.104Z,-2.80
2022-12-14T10:56:01.151Z,-2.70
2022-12-14T10:58:29.619Z,-2.70
2022-12-14T11:00:57.984Z,-2.60
2022-12-14T11:03:29.155Z,-2.60
2022-12-14T11:06:00.967Z,-2.60
2022-12-14T11:08:48.360Z,-2.60
2022-12-14T11:11:19.695Z,-2.50
2022-12-14T11:13:55.791Z,-2.40
2022-12-14T11:16:36.565Z,-2.30
2022-12-14T11:19:07.862Z,-2.30
2022-12-14T11:21:38.038Z,-2.30
2022-12-14T11:24:07.156Z,-2.20
2022-12-14T11:26:38.857Z,-2.20
2022-12-14T11:29:16.190Z,-2.20
2022-12-14T11:31:46.632Z,-2.10
2022-12-14T11:34:27.414Z,-2.10
2022-12-14T11:36:55.481Z,-2.00
2022-12-14T11:39:25.075Z,-2.00
2022-12-14T11:42:02.466Z,-2.00
2022-12-14T11:44:33.346Z,-2.00
2022-12-14T11:47:06.750Z,-2.00
2022-12-14T11:49:43.951Z,-2.00
2022-12-14T11:52:14.381Z,-2.00
2022-12-14T11:54:49.494Z,-2.00
2022-12-14T11:57:25.875Z,-2.00
2022-12-14T11:59:57.613Z,-1.90
2022-12-14T12:02:30.089Z,-1.90
2022-12-14T12:05:06.098Z,-1.80
2022-12-14T12:07:36.282Z,-1.60
2022-12-14T12:10:18.579Z,-1.60
2022-12-14T12:12:54.689Z,-1.50
2022-12-14T12:15:26.722Z,-1.50
2022-12-14T12:18:00.322Z,-1.50
2022-12-14T12:20:35.280Z,-1.40
2022-12-14T12:23:08.981Z,-1.40
2022-12-14T12:25:39.688Z,-1.30
2022-12-14T12:28:17.953Z,-1.30
2022-12-14T12:30:50.836Z,-1.30
2022-12-14T12:33:32.969Z,-1.30
2022-12-14T12:36:05.395Z,-1.20
2022-12-14T12:38:52.874Z,-1.20
2022-12-14T12:41:28.185Z,-1.30
2022-12-14T12:44:02.341Z,-1.10
2022-12-14T12:46:35.912Z,-1.10
2022-12-14T12:49:15.607Z,-1.10
2022-12-14T12:51:49.563Z,-1.00
2022-12-14T12:54:22.861Z,-1.00
2022-12-14T12:56:52.995Z,-1.00
2022-12-14T12:59:24.339Z,-1.00
2022-12-14T13:01:56.116Z,-1.00
2022-12-14T13:04:32.749Z,-1.00
2022-12-14T13:07:07.267Z,-1.10
2022-12-14T13:09:41.710Z,-1.10
2022-12-14T13:12:18.165Z,-1.10
2022-12-14T13:14:49.988Z,-1.10
2022-12-14T13:17:29.034Z,-1.10
2022-12-14T13:19:58.788Z,-1.20
2022-12-14T13:22:31.054Z,-1.10
2022-12-14T13:25:03.830Z,-1.20
2022-12-14T13:28:02.159Z,-1.20
2022-12-14T13:30:57.995Z,-1.30
2022-12-14T13:33:45.709Z,-1.30
2022-12-14T13:36:51.884Z,-1.30
2022-12-14T13:39:50.698Z,-1.40
2022-12-14T13:42:28.149Z,-1.40
2022-12-14T13:45:00.278Z,-1.40
2022-12-14T13:47:34.743Z,-1.40
2022-12-14T13:50:34.666Z,-1.40
2022-12-14T13:53:01.097Z,-1.40
2022-12-14T13:55:36.018Z,-1.40
2022-12-14T13:58:17.135Z,-1.40
2022-12-14T14:01:00.342Z,-1.30
2022-12-14T14:03:53.261Z,-1.30
2022-12-14T14:06:39.109Z,-1.30
2022-12-14T14:09:59.651Z,-1.20
2022-12-14T14:12:44.931Z,-1.20
2022-12-14T14:15:36.830Z,-1.20
2022-12-14T14:18:14.787Z,-1.20
2022-12-14T14:20:44.809Z,-1.30
2022-12-14T14:34:51.085Z,-1.60
2022-12-14T14:37:41.999Z,-1.70
2022-12-14T14:43:30.238Z,-1.80
2022-12-14T14:46:01.475Z,-1.90
2022-12-14T14:48:35.613Z,-2.00
2022-12-14T14:51:08.792Z,-2.00
2022-12-14T14:53:37.721Z,-2.00
2022-12-14T14:56:39.933Z,-2.10
2022-12-14T14:59:51.313Z,-2.20
2022-12-14T15:02:33.389Z,-2.30
2022-12-14T15:05:33.211Z,-2.40
2022-12-14T15:07:55.674Z,-2.30
2022-12-14T15:10:31.511Z,-2.40
2022-12-14T15:13:04.930Z,-2.50
2022-12-14T15:15:38.238Z,-2.60
2022-12-14T15:18:17.602Z,-2.70
2022-12-14T15:20:55.207Z,-2.80
2022-12-14T15:23:25.675Z,-2.80
2022-12-14T15:25:59.027Z,-2.90
2022-12-14T15:28:32.075Z,-2.90
2022-12-14T15:31:01.159Z,-3.00
2022-12-14T15:33:34.238Z,-3.00
2022-12-14T15:36:08.141Z,-3.10
2022-12-14T15:38:38.458Z,-3.20
2022-12-14T15:41:13.768Z,-3.20
2022-12-14T15:43:45.174Z,-3.20
2022-12-14T15:46:17.528Z,-3.20
2022-12-14T15:48:45.945Z,-3.30
2022-12-14T15:51:17.759Z,-3.40
2022-12-14T15:53:49.946Z,-3.40
2022-12-14T15:56:24.914Z,-3.40
2022-12-14T15:58:54.387Z,-3.50
2022-12-14T16:01:25.325Z,-3.50
2022-12-14T16:03:56.218Z,-3.50
2022-12-14T16:06:28.662Z,-3.40
2022-12-14T16:09:01.062Z,-3.50
2022-12-14T16:11:37.923Z,-3.50
2022-12-14T16:14:17.434Z,-3.50
2022-12-14T16:16:45.801Z,-3.50
2022-12-14T16:19:27.321Z,-3.50
2022-12-14T16:22:13.179Z,-3.60
2022-12-14T16:25:08.608Z,-3.60
2022-12-14T16:27:40.196Z,-3.60
2022-12-14T16:30:21.891Z,-3.70
2022-12-14T16:32:52.559Z,-3.70
2022-12-14T16:35:24.695Z,-3.70
2022-12-14T16:37:54.648Z,-3.70
2022-12-14T16:40:33.746Z,-3.80
2022-12-14T16:43:02.269Z,-3.90
2022-12-14T16:46:11.485Z,-3.90
2022-12-14T16:48:43.449Z,-4.00
2022-12-14T16:51:50.992Z,-4.00
2022-12-14T16:54:24.210Z,-4.10
2022-12-14T16:56:58.918Z,-4.10
2022-12-14T16:59:31.390Z,-4.10
2022-12-14T17:01:59.640Z,-4.20
2022-12-14T17:04:35.052Z,-4.20
2022-12-14T17:07:04.226Z,-4.30
2022-12-14T17:09:35.417Z,-4.30
2022-12-14T17:12:15.531Z,-4.20
2022-12-14T17:14:49.441Z,-4.20
2022-12-14T17:17:22.073Z,-4.20
2022-12-14T17:19:50.435Z,-4.20
2022-12-14T17:22:24.061Z,-4.20
2022-12-14T17:24:52.366Z,-4.30
2022-12-14T17:27:22.298Z,-4.30
2022-12-14T17:29:50.641Z,-4.40
2022-12-14T17:32:19.524Z,-4.50
2022-12-14T17:34:48.051Z,-4.50
2022-12-14T17:37:19.328Z,-4.50
2022-12-14T17:39:47.691Z,-4.50
2022-12-14T17:42:17.761Z,-4.40
2022-12-14T17:44:53.183Z,-4.50
2022-12-14T17:47:22.450Z,-4.50
2022-12-14T17:49:50.522Z,-4.60
2022-12-14T17:52:21.255Z,-4.60
2022-12-14T17:54:49.306Z,-4.70
2022-12-14T17:57:18.825Z,-4.80
2022-12-14T17:59:48.714Z,-4.90
2022-12-14T18:02:30.012Z,-4.90
2022-12-14T18:04:58.341Z,-5.00
2022-12-14T18:07:26.636Z,-5.00
2022-12-14T18:09:54.717Z,-5.00
2022-12-14T18:12:25.245Z,-5.10
2022-12-14T18:14:55.285Z,-5.10
2022-12-14T18:17:23.326Z,-5.00
2022-12-14T18:19:51.407Z,-5.00
2022-12-14T18:22:19.519Z,-5.00
2022-12-14T18:24:49.279Z,-5.00
2022-12-14T18:27:17.508Z,-4.90
2022-12-14T18:29:45.531Z,-5.00
2022-12-14T18:32:15.704Z,-5.00
2022-12-14T18:34:43.793Z,-5.10
2022-12-14T18:37:11.997Z,-5.00
2022-12-14T18:39:40.252Z,-5.00
2022-12-14T18:42:08.318Z,-5.00
2022-12-14T18:44:36.384Z,-4.90
2022-12-14T18:47:33.116Z,-5.00
2022-12-14T18:49:53.960Z,-5.10
2022-12-14T18:52:22.102Z,-5.10
2022-12-14T18:54:54.188Z,-5.20
2022-12-14T18:57:22.366Z,-5.20
2022-12-14T18:59:52.470Z,-5.20
2022-12-14T19:02:20.758Z,-5.20
2022-12-14T19:04:49.207Z,-5.10
2022-12-14T19:07:18.684Z,-5.10
2022-12-14T19:09:46.941Z,-5.10
2022-12-14T19:12:14.997Z,-5.10
2022-12-14T19:14:43.114Z,-5.10
2022-12-14T19:17:11.201Z,-5.20
2022-12-14T19:19:44.233Z,-5.20
2022-12-14T19:22:12.789Z,-5.20
2022-12-14T19:24:44.476Z,-5.30
2022-12-14T19:27:15.800Z,-5.30
2022-12-14T19:29:43.890Z,-5.40
2022-12-14T19:32:12.018Z,-5.40
2022-12-14T19:34:40.144Z,-5.50
2022-12-14T19:37:08.159Z,-5.50
2022-12-14T19:39:36.224Z,-5.60
2022-12-14T19:42:05.682Z,-5.60
2022-12-14T19:44:34.684Z,-5.60
2022-12-14T19:47:03.033Z,-5.60
2022-12-14T19:49:31.127Z,-5.50
2022-12-14T19:51:59.244Z,-5.50
2022-12-14T19:54:28.399Z,-5.50
2022-12-14T19:56:56.462Z,-5.60
2022-12-14T19:59:25.979Z,-5.60
2022-12-14T20:01:54.196Z,-5.60
2022-12-14T20:04:22.621Z,-5.60
2022-12-14T20:06:50.790Z,-5.70
2022-12-14T20:09:19.181Z,-5.70
2022-12-14T20:11:47.900Z,-5.60
2022-12-14T20:14:16.236Z,-5.60
2022-12-14T20:16:45.864Z,-5.60
2022-12-14T20:19:14.646Z,-5.70
2022-12-14T20:21:42.756Z,-5.70
2022-12-14T20:24:11.836Z,-5.60
2022-12-14T20:26:40.494Z,-5.60
2022-12-14T20:29:08.708Z,-5.50
2022-12-14T20:31:37.941Z,-5.50
2022-12-14T20:34:09.008Z,-5.40
2022-12-14T20:36:37.171Z,-5.40
2022-12-14T20:39:06.708Z,-5.40
2022-12-14T20:41:35.460Z,-5.40
2022-12-14T20:44:03.680Z,-5.60
2022-12-14T20:46:33.554Z,-5.60
2022-12-14T20:49:03.361Z,-5.60
2022-12-14T20:51:34.595Z,-5.70
2022-12-14T20:54:03.846Z,-5.70
2022-12-14T20:56:32.136Z,-5.70
2022-12-14T20:59:00.166Z,-5.50
2022-12-14T21:01:28.337Z,-5.50
2022-12-14T21:03:57.698Z,-5.40
2022-12-14T21:06:25.992Z,-5.30
2022-12-14T21:09:10.178Z,-5.30
2022-12-14T21:11:57.288Z,-5.50
2022-12-14T21:14:27.099Z,-5.60
2022-12-14T21:16:55.566Z,-5.70
2022-12-14T21:19:24.151Z,-5.70
2022-12-14T21:21:54.080Z,-5.80
2022-12-14T21:25:02.479Z,-5.80
2022-12-14T21:27:17.212Z,-5.80
2022-12-14T21:29:45.406Z,-5.80
2022-12-14T21:32:13.963Z,-5.90
2022-12-14T21:34:42.760Z,-5.80
2022-12-14T21:37:11.296Z,-5.80
2022-12-14T21:39:40.706Z,-5.90
2022-12-14T21:42:10.598Z,-5.90
2022-12-14T21:44:39.409Z,-5.80
2022-12-14T21:47:09.678Z,-5.80
2022-12-14T21:49:38.755Z,-5.60
2022-12-14T21:52:07.907Z,-5.50
2022-12-14T21:54:36.240Z,-5.50
2022-12-14T21:57:23.194Z,-5.50
2022-12-14T21:59:51.289Z,-5.60
2022-12-14T22:02:22.595Z,-5.60
2022-12-14T22:04:55.913Z,-5.60
2022-12-14T22:07:26.495Z,-5.50
2022-12-14T22:09:54.542Z,-5.50
2022-12-14T22:12:23.994Z,-5.50
2022-12-14T22:14:52.277Z,-5.50
2022-12-14T22:17:20.352Z,-5.60
2022-12-14T22:19:49.021Z,-5.60
2022-12-14T22:23:11.949Z,-5.60
2022-12-14T22:25:39.977Z,-5.60
2022-12-14T22:28:09.335Z,-5.50
2022-12-14T22:30:38.296Z,-5.50
2022-12-14T22:33:07.820Z,-5.40
2022-12-14T22:35:36.118Z,-5.40
2022-12-14T22:38:04.193Z,-5.40
2022-12-14T22:40:32.955Z,-5.50
2022-12-14T22:43:01.204Z,-5.60
2022-12-14T22:45:30.619Z,-5.50
2022-12-14T22:47:59.092Z,-5.40
2022-12-14T22:50:27.082Z,-5.30
2022-12-14T22:52:55.139Z,-5.40
2022-12-14T22:55:24.332Z,-5.40
2022-12-14T22:57:52.414Z,-5.40
2022-12-14T23:00:20.747Z,-5.40
2022-12-14T23:02:50.545Z,-5.30
2022-12-14T23:05:19.342Z,-5.30
2022-12-14T23:07:47.608Z,-5.40
2022-12-14T23:10:33.501Z,-5.40
2022-12-14T23:13:19.179Z,-5.40
2022-12-14T23:16:04.896Z,-5.40
2022-12-14T23:18:52.102Z,-5.40
2022-12-14T23:21:37.854Z,-5.30
2022-12-14T23:24:25.223Z,-5.20
2022-12-14T23:27:10.760Z,-5.20
2022-12-14T23:29:56.505Z,-5.20
2022-12-14T23:32:42.035Z,-5.20
2022-12-14T23:35:29.008Z,-5.20
2022-12-14T23:38:14.643Z,-5.20
2022-12-14T23:41:00.129Z,-5.10
2022-12-14T23:43:45.694Z,-5.10
2022-12-14T23:46:31.248Z,-5.20
2022-12-14T23:49:16.579Z,-5.20
2022-12-14T23:52:03.327Z,-5.20
2022-12-14T23:54:48.792Z,-5.30
2022-12-14T23:57:34.179Z,-5.30
